Terminal Aerodrome Forecast
Issued by NWS Mt. Holly, NJ

Home | Current Version | Previous Version | Text Only | Print | Product List | Glossary On
Versions: 1 2 3 4 5 6 7 8 9 10 11 12 13
000
FTUS41 KPHI 221756
TAFTTN
TAF
KTTN 221756Z 2218/2318 23004KT P6SM BKN150
     FM230700 VRB03KT 6SM BR FEW003 SCT100
     FM230800 VRB03KT 3SM BR BKN015
      TEMPO 2310/2313 1/2SM FG VV002
     FM231300 VRB03KT 1SM BR BKN004
     FM231500 20005KT 5SM BR SCT003 OVC010=

USA.gov is the U.S. government's official web portal to all federal, state and local government web resources and services.